メインページ
METAR-TAF:

METAR-TAF

空港 :

ウンベルト・デルガード空港

リスボン, ポルトガル

緯度: 38-46N, 経度: 009-08W, 海抜: 114m

現時点の気象観測

当レポートは32分前の17:00(UTC)に作成
南西の風 8kt
気温 19°C
湿度 68%
気圧 1021 hPa
視程10km以上
高度2200ftの雲はほとんどない

METAR: LPPT 071700Z 23008KT 9999 FEW022 19/13 Q1021

時間: 18:32 (17:32 UTC)

予報

当レポートは4時間56分前の12:36(UTC)に作成
予報は07日の 12時(UTC)から 08日の 18時(UTC)まで有効
南/南西の風 12kt
視程10km以上
高度1000ftの雲は散在している
高度1500ftの千切れ雲あり
07日の 13時(UTC)から 07日の 16時(UTC)まで徐々に
西/南西の風 10kt
高度2000ftの雲は散在している
07日の 20時(UTC)から 07日の 23時(UTC)まで徐々に
変向風 2kt
視程: 5000m
高度300ftの雲は散在している
高度500ftの千切れ雲あり
確率 40% :
07日の 23時(UTC)から 08日の 09時(UTC)まで一時的に
視程: 0100m
高度100ftの
08日の 09時(UTC)から 08日の 11時(UTC)まで徐々に
南/南東の風 5kt
視程10km以上
高度1000ftの雲はほとんどない
高度2000ftの雲は散在している
08日の 15時(UTC)から 08日の 18時(UTC)まで徐々に
変向風 2kt
高度3000ftの雲は散在している

TAF: LPPT 071236Z 0712/0818 21012KT 9999 SCT010 BKN015 BECMG 0713/0716 25010KT SCT020 BECMG 0720/0723 VRB02KT 5000 BR SCT003 BKN005 PROB40 TEMPO 0723/0809 0100 FG VV001 BECMG 0809/0811 15005KT 9999 NSW FEW010 SCT020 BECMG 0815/0818 VRB02KT SCT030

4,000以上の空港の気象観測と天気予報(METAR報とTAF報)

利用可能な観測所は地図上に黄色い丸と赤い丸で示す。

丸の上にカーソルを重ねると観測所名を参照できる。

次にクリックすると気象観測と天気予報を参照できる。

マップの切り替え:黒色「×」印の緑ボタンをクリックして拡大、「-」印の緑ボタンをクリックして縮小、緑色の三角印をクリックして隣りの地図に切り替え


METAR-TAF: